Terminal Aerodrome Forecast
Issued by NWS

Home | Current Version | Previous Version | Text Only | Print | Product List | Glossary On
Versions: 1 2 3 4 5 6 7 8 9 10 11 12 13 14 15
000
FTUS44 KLIX 301100 RRA
TAFMCB
TAF
KMCB 301140Z 3012/3112 08005KT P6SM SCT003 BKN250
     FM301400 17009KT 6SM -SHRA BKN025 OVC050
      TEMPO 3017/3021 3SM TSRA BR BKN020CB
     FM310100 18005KT P6SM BKN050=

USA.gov is the U.S. government's official web portal to all federal, state and local government web resources and services.